createdAt,value
2023-05-07T00:04:57.320Z,24.11
2023-05-07T00:10:00.497Z,24.11
2023-05-07T00:15:07.431Z,24.09
2023-05-07T00:20:11.315Z,24.10
2023-05-07T00:25:14.357Z,24.09
2023-05-07T00:30:18.901Z,24.08
2023-05-07T00:35:21.740Z,24.08
2023-05-07T00:40:24.733Z,24.05
2023-05-07T00:45:30.054Z,24.05
2023-05-07T00:50:33.808Z,24.03
2023-05-07T00:55:37.685Z,24.02
2023-05-07T01:00:42.186Z,24.02
2023-05-07T01:05:45.968Z,24.02
2023-05-07T01:10:49.303Z,24.01
2023-05-07T01:15:53.501Z,24.01
2023-05-07T01:20:57.397Z,24.01
2023-05-07T01:26:01.920Z,23.99
2023-05-07T01:31:07.217Z,23.98
2023-05-07T01:36:11.276Z,23.98
2023-05-07T01:41:16.086Z,23.96
2023-05-07T01:46:19.706Z,23.96
2023-05-07T01:51:23.280Z,23.95
2023-05-07T01:56:27.742Z,23.95
2023-05-07T02:01:30.992Z,23.94
2023-05-07T02:06:33.901Z,23.93
2023-05-07T02:11:38.110Z,23.94
2023-05-07T02:16:40.982Z,23.93
2023-05-07T02:21:43.857Z,23.92
2023-05-07T02:26:48.101Z,23.91
2023-05-07T02:31:51.804Z,23.91
2023-05-07T02:36:54.720Z,23.90
2023-05-07T02:41:59.654Z,23.90
2023-05-07T02:47:02.449Z,23.87
2023-05-07T02:52:05.339Z,23.88
2023-05-07T02:57:10.367Z,23.86
2023-05-07T03:02:13.295Z,23.86
2023-05-07T03:07:16.477Z,23.86
2023-05-07T03:12:21.269Z,23.87
2023-05-07T03:17:24.178Z,23.86
2023-05-07T03:22:26.981Z,23.85
2023-05-07T03:27:31.250Z,23.85
2023-05-07T03:32:34.444Z,23.83
2023-05-07T03:37:37.263Z,23.83
2023-05-07T03:42:41.646Z,23.81
2023-05-07T03:47:44.892Z,23.81
2023-05-07T03:52:47.736Z,23.80
2023-05-07T03:57:51.915Z,23.80
2023-05-07T04:02:54.750Z,23.80
2023-05-07T04:07:57.674Z,23.80
2023-05-07T04:13:02.093Z,23.79
2023-05-07T04:18:05.134Z,23.77
2023-05-07T04:23:08.044Z,23.78
2023-05-07T04:28:12.457Z,23.79
2023-05-07T04:33:17.740Z,23.78
2023-05-07T04:38:20.572Z,23.78
2023-05-07T04:43:24.817Z,23.79
2023-05-07T04:48:28.271Z,23.77
2023-05-07T04:53:31.107Z,23.77
2023-05-07T04:58:35.368Z,23.77
2023-05-07T05:03:38.723Z,23.77
2023-05-07T05:08:41.596Z,23.77
2023-05-07T05:13:45.839Z,23.76
2023-05-07T05:18:48.711Z,23.77
2023-05-07T05:23:51.783Z,23.79
2023-05-07T05:28:57.111Z,23.80
2023-05-07T05:33:59.948Z,23.80
2023-05-07T05:39:02.795Z,23.81
2023-05-07T05:44:07.102Z,23.82
2023-05-07T05:49:09.981Z,23.85
2023-05-07T05:54:12.758Z,23.86
2023-05-07T05:59:17.065Z,23.85
2023-05-07T06:04:20.147Z,23.86
2023-05-07T06:09:22.943Z,23.86
2023-05-07T06:14:27.290Z,23.87
2023-05-07T06:19:30.078Z,23.88
2023-05-07T06:24:32.854Z,23.89
2023-05-07T06:29:37.044Z,23.91
2023-05-07T06:34:40.338Z,23.93
2023-05-07T06:39:43.227Z,23.94
2023-05-07T06:44:47.414Z,23.95
2023-05-07T06:49:50.267Z,23.96
2023-05-07T06:54:53.090Z,23.99
2023-05-07T06:59:57.380Z,24.00
2023-05-07T07:05:00.393Z,24.01
2023-05-07T07:10:04.219Z,24.03
2023-05-07T07:15:09.638Z,24.04
2023-05-07T07:20:13.200Z,24.05
2023-05-07T07:25:18.891Z,24.08
2023-05-07T07:35:25.971Z,24.09
2023-05-07T07:40:29.068Z,24.10
2023-05-07T07:45:33.290Z,24.13
2023-05-07T07:50:44.563Z,24.14
2023-05-07T07:55:48.868Z,24.17
2023-05-07T08:00:53.058Z,24.18
2023-05-07T08:05:55.980Z,24.20
2023-05-07T08:10:58.813Z,24.24
2023-05-07T08:16:02.985Z,24.27
2023-05-07T08:21:06.128Z,24.31
2023-05-07T08:26:11.053Z,24.37
2023-05-07T08:31:15.714Z,24.42
2023-05-07T08:36:20.116Z,24.49
2023-05-07T08:41:23.360Z,24.58
2023-05-07T08:46:27.987Z,24.63
2023-05-07T08:51:32.421Z,24.68
2023-05-07T08:56:35.503Z,24.73
2023-05-07T09:01:40.099Z,24.79
2023-05-07T09:06:43.180Z,24.83
2023-05-07T09:11:46.079Z,24.87
2023-05-07T09:16:50.236Z,24.91
2023-05-07T09:22:00.370Z,24.92
2023-05-07T09:27:03.990Z,24.94
2023-05-07T09:32:09.243Z,24.94
2023-05-07T09:37:14.707Z,24.97
2023-05-07T09:42:17.642Z,24.98
2023-05-07T09:47:22.732Z,25.01
2023-05-07T09:52:26.670Z,24.99
2023-05-07T09:57:29.685Z,25.03
2023-05-07T10:02:35.528Z,24.99
2023-05-07T10:07:38.425Z,24.98
2023-05-07T10:12:42.509Z,24.97
2023-05-07T10:17:46.932Z,24.94
2023-05-07T10:22:50.909Z,24.89
2023-05-07T10:27:54.659Z,24.85
2023-05-07T10:33:06.671Z,24.86
2023-05-07T10:38:10.309Z,24.83
2023-05-07T10:43:13.222Z,24.82
2023-05-07T10:53:29.970Z,24.80
2023-05-07T10:58:34.219Z,24.79
2023-05-07T11:04:18.908Z,24.79
2023-05-07T11:09:21.905Z,24.80
2023-05-07T11:14:45.931Z,24.79
2023-05-07T11:19:53.719Z,24.78
2023-05-07T11:24:56.956Z,24.78
2023-05-07T11:30:00.244Z,24.77
2023-05-07T11:35:04.519Z,24.77
2023-05-07T11:40:09.036Z,24.76
2023-05-07T11:45:12.493Z,24.75
2023-05-07T11:50:16.901Z,24.74
2023-05-07T11:55:20.616Z,24.69
2023-05-07T12:00:23.835Z,24.71
2023-05-07T12:05:28.090Z,24.67
2023-05-07T12:10:30.970Z,24.65
2023-05-07T12:15:33.805Z,24.60
2023-05-07T12:20:38.140Z,24.60
2023-05-07T12:25:44.358Z,24.61
2023-05-07T12:30:48.799Z,24.59
2023-05-07T12:35:53.054Z,24.58
2023-05-07T12:40:56.602Z,24.55
2023-05-07T12:46:02.729Z,24.50
2023-05-07T12:51:08.013Z,24.49
2023-05-07T12:56:11.271Z,24.46
2023-05-07T13:01:16.592Z,24.44
2023-05-07T13:06:21.166Z,24.44
2023-05-07T13:11:26.323Z,24.42
2023-05-07T13:16:29.168Z,24.41
2023-05-07T13:21:33.848Z,24.40
2023-05-07T13:26:36.927Z,24.39
2023-05-07T13:31:43.727Z,24.38
2023-05-07T13:36:48.017Z,24.35
2023-05-07T13:41:50.850Z,24.35
2023-05-07T13:46:53.679Z,24.34
2023-05-07T13:51:57.882Z,24.34
2023-05-07T13:57:00.668Z,24.36
2023-05-07T14:02:03.519Z,24.37
2023-05-07T14:07:07.763Z,24.36
2023-05-07T14:12:10.682Z,24.36
2023-05-07T14:17:13.586Z,24.40
2023-05-07T14:22:17.911Z,24.43
2023-05-07T14:27:20.689Z,24.42
2023-05-07T14:32:23.854Z,24.44
2023-05-07T14:37:28.205Z,24.42
2023-05-07T14:42:31.338Z,24.39
2023-05-07T14:47:34.254Z,24.38
2023-05-07T14:52:38.406Z,24.36
2023-05-07T14:57:41.377Z,24.35
2023-05-07T15:02:44.350Z,24.34
2023-05-07T15:07:48.573Z,24.31
2023-05-07T15:12:52.307Z,24.34
2023-05-07T15:17:55.352Z,24.33
2023-05-07T15:22:59.666Z,24.32
2023-05-07T15:28:02.521Z,24.32
2023-05-07T15:33:05.514Z,24.31
2023-05-07T15:38:10.081Z,24.29
2023-05-07T15:43:13.544Z,24.28
2023-05-07T15:48:16.510Z,24.27
2023-05-07T15:53:20.670Z,24.26
2023-05-07T15:58:23.926Z,24.27
2023-05-07T16:03:29.668Z,24.28
2023-05-07T16:08:34.181Z,24.31
2023-05-07T16:13:37.082Z,24.32
2023-05-07T16:18:39.918Z,24.30
2023-05-07T16:23:44.090Z,24.29
2023-05-07T16:28:46.939Z,24.32
2023-05-07T16:33:49.775Z,24.28
2023-05-07T16:38:53.903Z,24.25
2023-05-07T16:43:57.722Z,24.25
2023-05-07T16:49:00.525Z,24.21
2023-05-07T16:54:04.916Z,24.21
2023-05-07T16:59:07.703Z,24.19
2023-05-07T17:04:10.568Z,24.16
2023-05-07T17:09:14.770Z,24.16
2023-05-07T17:14:17.602Z,24.15
2023-05-07T17:19:20.434Z,24.16
2023-05-07T17:24:24.569Z,24.15
2023-05-07T17:29:27.385Z,24.14
2023-05-07T17:34:31.476Z,24.13
2023-05-07T17:39:35.607Z,24.10
2023-05-07T17:44:38.425Z,24.10
2023-05-07T17:49:41.912Z,24.09
2023-05-07T17:59:48.748Z,24.06
2023-05-07T18:04:51.577Z,24.04
2023-05-07T18:09:55.913Z,24.04
2023-05-07T18:14:58.881Z,24.01
2023-05-07T18:20:02.109Z,24.00
2023-05-07T18:25:07.397Z,23.99
2023-05-07T18:30:11.850Z,23.98
2023-05-07T18:35:16.650Z,23.97
2023-05-07T18:40:21.093Z,23.96
2023-05-07T18:45:24.045Z,23.95
2023-05-07T18:50:26.880Z,23.94
2023-05-07T18:55:31.451Z,23.93
2023-05-07T19:00:34.377Z,23.91
2023-05-07T19:05:37.168Z,23.89
2023-05-07T19:10:41.387Z,23.88
2023-05-07T19:15:44.367Z,23.87
2023-05-07T19:20:48.839Z,23.87
2023-05-07T19:25:53.278Z,23.86
2023-05-07T19:30:58.048Z,23.84
2023-05-07T19:36:01.240Z,23.82
2023-05-07T19:41:05.977Z,23.81
2023-05-07T19:46:08.809Z,23.81
2023-05-07T19:51:11.721Z,23.79
2023-05-07T19:56:15.887Z,23.78
2023-05-07T20:01:18.768Z,23.77
2023-05-07T20:06:23.200Z,23.76
2023-05-07T20:11:28.453Z,23.75
2023-05-07T20:16:31.298Z,23.73
2023-05-07T20:21:34.202Z,23.71
2023-05-07T20:26:38.722Z,23.71
2023-05-07T20:31:41.760Z,23.68
2023-05-07T20:36:46.499Z,23.69
2023-05-07T20:41:53.011Z,23.68
2023-05-07T20:46:55.862Z,23.68
2023-05-07T20:51:58.650Z,23.67
2023-05-07T20:57:02.829Z,23.65
2023-05-07T21:02:05.611Z,23.66
2023-05-07T21:07:09.313Z,23.64
2023-05-07T21:12:14.706Z,23.65
2023-05-07T21:17:17.729Z,23.63
2023-05-07T21:22:20.700Z,23.63
2023-05-07T21:27:25.179Z,23.63
2023-05-07T21:32:28.030Z,23.62
2023-05-07T21:37:30.855Z,23.61
2023-05-07T21:42:35.265Z,23.59
2023-05-07T21:47:38.162Z,23.60
2023-05-07T21:52:41.020Z,23.59
2023-05-07T21:57:53.813Z,23.58
2023-05-07T22:03:04.758Z,23.57
2023-05-07T22:08:07.694Z,23.57
2023-05-07T22:13:12.238Z,23.55
2023-05-07T22:18:15.308Z,23.55
2023-05-07T22:23:18.107Z,23.54
2023-05-07T22:28:22.396Z,23.53
2023-05-07T22:33:25.326Z,23.54
2023-05-07T22:38:28.161Z,23.52
2023-05-07T22:43:33.685Z,23.51
2023-05-07T22:48:36.787Z,23.50
2023-05-07T22:53:39.582Z,23.51
2023-05-07T22:58:43.766Z,23.50
2023-05-07T23:03:46.610Z,23.50
2023-05-07T23:08:49.512Z,23.47
2023-05-07T23:13:53.631Z,23.47
2023-05-07T23:18:56.720Z,23.47
2023-05-07T23:23:59.521Z,23.46
2023-05-07T23:29:04.589Z,23.46
2023-05-07T23:34:07.415Z,23.46
2023-05-07T23:39:10.467Z,23.45
2023-05-07T23:44:16.377Z,23.45
2023-05-07T23:49:19.777Z,23.44
2023-05-07T23:54:22.635Z,23.44
2023-05-07T23:59:26.868Z,23.42
